createdAt,value
2022-12-03T00:01:56.339Z,39.97
2022-12-03T00:04:23.052Z,45.27
2022-12-03T00:06:49.742Z,44.67
2022-12-03T00:09:16.735Z,43.47
2022-12-03T00:11:44.316Z,41.63
2022-12-03T00:14:10.967Z,44.27
2022-12-03T00:16:37.912Z,41.43
2022-12-03T00:19:04.652Z,44.87
2022-12-03T00:21:35.826Z,47.70
2022-12-03T00:24:04.994Z,44.90
2022-12-03T00:26:31.623Z,46.53
2022-12-03T00:28:58.308Z,50.27
2022-12-03T00:34:10.143Z,44.93
2022-12-03T00:36:36.706Z,42.23
2022-12-03T00:39:03.391Z,46.97
2022-12-03T00:41:30.001Z,48.40
2022-12-03T00:46:41.830Z,51.20
2022-12-03T00:51:52.865Z,51.10
2022-12-03T00:54:20.115Z,44.13
2022-12-03T00:56:46.833Z,49.47
2022-12-03T00:59:13.515Z,45.03
2022-12-03T01:01:40.358Z,47.40
2022-12-03T01:04:06.895Z,54.17
2022-12-03T01:06:33.455Z,51.40
2022-12-03T01:09:00.266Z,46.10
2022-12-03T01:11:39.024Z,48.30
2022-12-03T01:14:06.155Z,48.73
2022-12-03T01:16:32.962Z,48.90
2022-12-03T01:18:59.533Z,44.83
2022-12-03T01:24:10.300Z,42.50
2022-12-03T01:26:36.881Z,49.03
2022-12-03T01:29:03.994Z,49.10
2022-12-03T01:34:33.539Z,49.03
2022-12-03T01:39:46.495Z,48.80
2022-12-03T01:42:15.544Z,57.60
2022-12-03T01:44:42.115Z,56.10
2022-12-03T01:47:14.087Z,51.60
2022-12-03T01:49:43.817Z,52.80
2022-12-03T01:52:11.548Z,51.67
2022-12-03T01:54:41.981Z,56.77
2022-12-03T02:00:02.181Z,57.90
2022-12-03T02:05:19.664Z,58.17
2022-12-03T02:10:34.555Z,53.57
2022-12-03T02:15:45.788Z,58.87
2022-12-03T02:21:05.091Z,57.77
2022-12-03T02:23:43.313Z,54.57
2022-12-03T02:26:09.816Z,53.57
2022-12-03T02:28:36.343Z,50.90
2022-12-03T02:33:49.210Z,54.67
2022-12-03T02:36:15.787Z,48.10
2022-12-03T02:38:42.322Z,46.67
2022-12-03T02:41:09.437Z,49.43
2022-12-03T02:43:35.966Z,50.67
2022-12-03T02:46:02.581Z,50.30
2022-12-03T02:48:30.034Z,49.20
2022-12-03T02:53:44.611Z,51.57
2022-12-03T02:58:57.233Z,50.87
2022-12-03T03:01:24.503Z,47.53
2022-12-03T03:03:51.116Z,48.40
2022-12-03T03:06:17.902Z,48.07
2022-12-03T03:08:44.435Z,55.40
2022-12-03T03:11:10.965Z,51.03
2022-12-03T03:13:37.708Z,47.33
2022-12-03T03:16:04.564Z,48.97
2022-12-03T03:18:31.481Z,54.73
2022-12-03T03:20:58.056Z,53.63
2022-12-03T03:23:24.807Z,54.13
2022-12-03T03:25:51.271Z,51.30
2022-12-03T03:28:18.737Z,54.10
2022-12-03T03:33:29.642Z,52.63
2022-12-03T03:35:56.288Z,47.80
2022-12-03T03:38:22.797Z,53.17
2022-12-03T03:40:49.370Z,49.07
2022-12-03T03:43:15.893Z,57.17
2022-12-03T03:45:42.606Z,51.37
2022-12-03T03:48:09.162Z,53.20
2022-12-03T03:53:19.477Z,56.13
2022-12-03T03:58:30.211Z,54.50
2022-12-03T04:00:58.004Z,55.27
2022-12-03T04:03:24.567Z,51.70
2022-12-03T04:05:51.125Z,51.10
2022-12-03T04:08:17.817Z,48.50
2022-12-03T04:11:03.148Z,54.70
2022-12-03T04:16:13.831Z,50.93
2022-12-03T04:18:43.482Z,57.83
2022-12-03T04:21:32.444Z,46.37
2022-12-03T04:23:59.160Z,55.90
2022-12-03T04:26:44.397Z,48.20
2022-12-03T04:29:11.867Z,43.47
2022-12-03T04:31:57.283Z,49.67
2022-12-03T04:34:42.579Z,56.97
2022-12-03T04:37:09.210Z,48.97
2022-12-03T04:39:35.772Z,51.90
2022-12-03T04:42:02.437Z,52.77
2022-12-03T04:44:37.771Z,50.77
2022-12-03T04:47:11.515Z,46.47
2022-12-03T04:49:41.846Z,51.87
2022-12-03T04:52:08.643Z,48.23
2022-12-03T04:57:19.435Z,52.27
2022-12-03T05:02:30.235Z,52.10
2022-12-03T05:04:56.882Z,51.43
2022-12-03T05:07:23.411Z,53.77
2022-12-03T05:09:49.972Z,50.70
2022-12-03T05:15:00.445Z,51.30
2022-12-03T05:17:26.982Z,54.57
2022-12-03T05:20:12.456Z,48.33
2022-12-03T05:22:39.012Z,50.80
2022-12-03T05:25:05.781Z,52.93
2022-12-03T05:27:32.320Z,56.77
2022-12-03T05:29:58.894Z,50.63
2022-12-03T05:32:25.957Z,52.93
2022-12-03T05:34:53.003Z,54.97
2022-12-03T05:37:20.041Z,49.93
2022-12-03T05:39:46.561Z,51.73
2022-12-03T05:42:31.828Z,53.30
2022-12-03T05:44:58.395Z,60.73
2022-12-03T05:47:24.842Z,54.40
2022-12-03T05:49:51.380Z,51.80
2022-12-03T05:52:17.867Z,54.90
2022-12-03T05:54:44.428Z,57.90
2022-12-03T05:59:54.730Z,55.13
2022-12-03T06:02:36.503Z,61.67
2022-12-03T06:05:03.316Z,55.37
2022-12-03T06:07:29.950Z,57.63
2022-12-03T06:09:56.584Z,64.63
2022-12-03T06:12:23.111Z,69.97
2022-12-03T06:14:49.735Z,70.93
2022-12-03T06:17:16.313Z,56.43
2022-12-03T06:19:42.921Z,60.93
2022-12-03T06:22:11.287Z,67.13
2022-12-03T06:24:38.068Z,60.20
2022-12-03T06:27:04.653Z,54.63
2022-12-03T06:29:31.206Z,57.13
2022-12-03T06:31:57.785Z,50.17
2022-12-03T06:34:24.296Z,50.00
2022-12-03T06:36:50.986Z,54.37
2022-12-03T06:42:02.374Z,48.63
2022-12-03T06:44:29.528Z,55.53
2022-12-03T06:46:56.306Z,55.30
2022-12-03T06:49:22.926Z,55.13
2022-12-03T06:54:33.720Z,54.10
2022-12-03T06:59:44.530Z,53.27
2022-12-03T07:02:12.596Z,55.27
2022-12-03T07:04:44.675Z,46.93
2022-12-03T07:07:12.784Z,46.60
2022-12-03T07:09:39.454Z,45.03
2022-12-03T07:12:06.141Z,40.97
2022-12-03T07:14:32.698Z,47.73
2022-12-03T07:16:59.243Z,43.93
2022-12-03T07:19:32.127Z,48.67
2022-12-03T07:21:59.293Z,51.27
2022-12-03T07:24:25.907Z,43.93
2022-12-03T07:26:52.454Z,39.90
2022-12-03T07:32:03.452Z,46.20
2022-12-03T07:34:29.948Z,45.37
2022-12-03T07:36:56.937Z,44.83
2022-12-03T07:39:23.490Z,49.47
2022-12-03T07:44:34.287Z,50.90
2022-12-03T07:49:44.992Z,65.03
2022-12-03T07:52:11.517Z,48.87
2022-12-03T07:54:38.159Z,52.30
2022-12-03T07:57:04.774Z,46.90
2022-12-03T07:59:32.183Z,44.20
2022-12-03T08:01:58.888Z,51.50
2022-12-03T08:04:26.304Z,46.93
2022-12-03T08:06:53.059Z,42.47
2022-12-03T08:09:19.678Z,41.10
2022-12-03T08:11:47.813Z,42.07
2022-12-03T08:14:15.222Z,42.90
2022-12-03T08:16:42.342Z,46.80
2022-12-03T08:19:09.611Z,49.80
2022-12-03T08:21:36.361Z,47.70
2022-12-03T08:24:11.817Z,44.37
2022-12-03T08:29:24.560Z,42.97
2022-12-03T08:31:52.384Z,47.93
2022-12-03T08:34:20.129Z,45.57
2022-12-03T08:36:47.039Z,49.20
2022-12-03T08:39:35.872Z,44.30
2022-12-03T08:42:27.400Z,41.53
2022-12-03T08:44:55.933Z,47.70
2022-12-03T08:47:23.211Z,46.73
2022-12-03T08:50:04.845Z,43.07
2022-12-03T08:52:32.354Z,40.27
2022-12-03T08:54:59.028Z,40.17
2022-12-03T08:57:32.415Z,43.70
2022-12-03T09:00:01.274Z,40.10
2022-12-03T09:02:32.731Z,38.30
2022-12-03T09:05:00.117Z,40.27
2022-12-03T09:07:27.076Z,43.73
2022-12-03T09:09:54.348Z,43.47
2022-12-03T09:12:21.275Z,41.33
2022-12-03T09:14:48.214Z,40.70
2022-12-03T09:17:16.497Z,44.40
2022-12-03T09:19:46.195Z,39.53
2022-12-03T09:22:13.414Z,44.47
2022-12-03T09:24:48.544Z,49.30
2022-12-03T09:27:15.629Z,53.10
2022-12-03T09:29:42.228Z,47.40
2022-12-03T09:32:16.659Z,38.00
2022-12-03T09:34:45.530Z,44.07
2022-12-03T09:37:12.184Z,47.23
2022-12-03T09:39:38.746Z,42.10
2022-12-03T09:42:05.750Z,43.60
2022-12-03T09:44:32.820Z,40.40
2022-12-03T09:47:00.299Z,37.50
2022-12-03T09:49:27.416Z,39.27
2022-12-03T09:51:58.534Z,40.73
2022-12-03T09:54:26.110Z,39.87
2022-12-03T09:56:57.192Z,37.73
2022-12-03T09:59:48.581Z,44.03
2022-12-03T10:02:25.250Z,37.27
2022-12-03T10:04:53.075Z,39.37
2022-12-03T10:07:21.029Z,41.00
2022-12-03T10:12:32.820Z,39.67
2022-12-03T10:15:01.911Z,41.90
2022-12-03T10:17:28.788Z,41.90
2022-12-03T10:19:55.662Z,40.10
2022-12-03T10:22:24.758Z,42.83
2022-12-03T10:25:04.640Z,45.53
2022-12-03T10:30:16.976Z,42.53
2022-12-03T10:32:45.252Z,43.67
2022-12-03T10:35:15.189Z,43.07
2022-12-03T10:37:57.495Z,45.70
2022-12-03T10:40:27.653Z,47.13
2022-12-03T10:42:55.780Z,48.80
2022-12-03T10:45:22.865Z,42.27
2022-12-03T10:48:02.975Z,41.93
2022-12-03T10:50:30.425Z,45.53
2022-12-03T10:52:57.213Z,44.57
2022-12-03T10:55:24.084Z,47.17
2022-12-03T11:00:35.053Z,41.40
2022-12-03T11:03:02.940Z,47.13
2022-12-03T11:05:29.822Z,44.53
2022-12-03T11:07:56.690Z,43.57
2022-12-03T11:10:25.071Z,47.30
2022-12-03T11:13:10.696Z,47.67
2022-12-03T11:15:44.327Z,47.53
2022-12-03T11:18:11.166Z,42.97
2022-12-03T11:23:45.749Z,44.83
2022-12-03T11:26:18.671Z,41.70
2022-12-03T11:28:46.256Z,41.13
2022-12-03T11:31:31.676Z,53.67
2022-12-03T11:34:19.919Z,45.83
2022-12-03T11:40:04.683Z,43.90
2022-12-03T11:42:38.895Z,43.73
2022-12-03T11:45:06.046Z,44.07
2022-12-03T11:47:35.836Z,46.53
2022-12-03T11:53:32.164Z,46.47
2022-12-03T11:56:13.284Z,44.10
2022-12-03T11:58:40.331Z,45.77
2022-12-03T12:01:07.353Z,48.80
2022-12-03T12:03:35.181Z,44.30
2022-12-03T12:06:05.233Z,44.53
2022-12-03T12:08:32.293Z,55.30
2022-12-03T12:11:00.044Z,54.03
2022-12-03T12:13:35.613Z,44.73
2022-12-03T12:16:06.415Z,44.50
2022-12-03T12:18:33.200Z,41.73
2022-12-03T12:21:18.492Z,39.27
2022-12-03T12:23:45.263Z,45.57
2022-12-03T12:26:13.689Z,40.10
2022-12-03T12:28:40.290Z,40.90
2022-12-03T12:31:10.933Z,44.47
2022-12-03T12:33:37.666Z,47.60
2022-12-03T12:36:10.479Z,42.73
2022-12-03T12:38:37.223Z,51.27
2022-12-03T12:41:07.018Z,48.93
2022-12-03T12:43:35.064Z,43.30
2022-12-03T12:46:25.251Z,44.33
2022-12-03T12:48:57.928Z,48.00
2022-12-03T12:51:26.303Z,46.10
2022-12-03T12:53:53.932Z,47.07
2022-12-03T12:56:25.226Z,52.33
2022-12-03T12:58:52.124Z,62.53
2022-12-03T13:01:25.770Z,44.30
2022-12-03T13:03:52.930Z,50.73
2022-12-03T13:06:20.904Z,44.57
2022-12-03T13:08:47.948Z,48.97
2022-12-03T13:11:34.731Z,49.23
2022-12-03T13:14:02.455Z,49.87
2022-12-03T13:16:30.897Z,46.53
2022-12-03T13:18:58.045Z,44.93
2022-12-03T13:21:40.914Z,47.40
2022-12-03T13:24:26.588Z,51.70
2022-12-03T13:26:53.262Z,55.20
2022-12-03T13:29:19.979Z,53.10
2022-12-03T13:31:52.964Z,49.73
2022-12-03T13:34:21.438Z,51.60
2022-12-03T13:36:53.603Z,47.70
2022-12-03T13:39:30.359Z,46.97
2022-12-03T13:42:15.924Z,40.53
2022-12-03T13:44:48.958Z,41.50
2022-12-03T13:47:16.877Z,47.50
2022-12-03T13:49:44.419Z,43.43
2022-12-03T13:52:12.903Z,47.63
2022-12-03T13:54:39.829Z,44.67
2022-12-03T13:57:06.685Z,47.83
2022-12-03T13:59:33.380Z,48.77
2022-12-03T14:02:00.250Z,46.67
2022-12-03T14:04:27.168Z,46.07
2022-12-03T14:06:53.980Z,46.00
2022-12-03T14:09:20.830Z,41.47
2022-12-03T14:12:06.315Z,52.13
2022-12-03T14:14:33.127Z,44.07
2022-12-03T14:17:00.339Z,47.60
2022-12-03T14:19:27.529Z,52.07
2022-12-03T14:21:54.226Z,49.80
2022-12-03T14:24:21.228Z,50.97
2022-12-03T14:26:47.948Z,54.53
2022-12-03T14:29:14.977Z,56.20
2022-12-03T14:31:41.707Z,48.57
2022-12-03T14:34:08.563Z,49.73
2022-12-03T14:36:35.357Z,50.70
2022-12-03T14:39:02.473Z,46.97
2022-12-03T14:41:47.599Z,49.10
2022-12-03T14:44:14.518Z,47.90
2022-12-03T14:46:41.161Z,45.70
2022-12-03T14:49:07.794Z,50.27
2022-12-03T14:51:34.474Z,46.47
2022-12-03T14:54:01.632Z,51.27
2022-12-03T14:59:15.807Z,49.33
2022-12-03T15:04:26.719Z,48.40
2022-12-03T15:06:53.458Z,50.50
2022-12-03T15:09:20.705Z,52.20
2022-12-03T15:11:47.255Z,56.50
2022-12-03T15:14:15.383Z,54.10
2022-12-03T15:16:42.048Z,47.10
2022-12-03T15:19:08.884Z,47.90
2022-12-03T15:21:35.656Z,47.37
2022-12-03T15:24:02.486Z,47.63
2022-12-03T15:26:29.127Z,46.70
2022-12-03T15:31:39.677Z,45.70
2022-12-03T15:34:06.314Z,48.80
2022-12-03T15:36:32.902Z,50.70
2022-12-03T15:38:59.640Z,49.40
2022-12-03T15:41:29.688Z,56.80
2022-12-03T15:43:57.329Z,46.93
2022-12-03T15:46:24.159Z,51.73
2022-12-03T15:48:50.874Z,54.97
2022-12-03T15:51:17.550Z,58.90
2022-12-03T15:53:44.171Z,61.70
2022-12-03T15:58:56.412Z,54.97
2022-12-03T16:04:08.075Z,48.87
2022-12-03T16:09:23.665Z,52.87
2022-12-03T16:11:53.500Z,53.87
2022-12-03T16:14:20.582Z,52.17
2022-12-03T16:16:47.199Z,56.33
2022-12-03T16:19:14.343Z,51.33
2022-12-03T16:21:41.052Z,49.43
2022-12-03T16:24:07.593Z,49.77
2022-12-03T16:26:34.237Z,51.43
2022-12-03T16:29:00.873Z,58.60
2022-12-03T16:31:27.451Z,54.17
2022-12-03T16:33:54.856Z,57.83
2022-12-03T16:36:21.499Z,53.80
2022-12-03T16:38:50.416Z,64.43
2022-12-03T16:41:17.128Z,61.90
2022-12-03T16:43:46.194Z,58.97
2022-12-03T16:46:19.486Z,53.67
2022-12-03T16:48:49.482Z,57.07
2022-12-03T16:51:19.367Z,56.60
2022-12-03T16:53:45.992Z,56.40
2022-12-03T16:56:12.544Z,53.97
2022-12-03T16:58:39.241Z,62.60
2022-12-03T17:01:06.095Z,57.13
2022-12-03T17:03:34.245Z,56.23
2022-12-03T17:06:01.120Z,59.33
2022-12-03T17:08:27.729Z,66.10
2022-12-03T17:10:54.387Z,57.43
2022-12-03T17:13:23.242Z,61.97
2022-12-03T17:15:50.237Z,65.17
2022-12-03T17:18:16.835Z,56.67
2022-12-03T17:20:43.510Z,57.57
2022-12-03T17:23:12.729Z,60.90
2022-12-03T17:25:39.257Z,64.70
2022-12-03T17:28:05.868Z,60.43
2022-12-03T17:30:32.530Z,64.60
2022-12-03T17:32:59.091Z,69.13
2022-12-03T17:38:11.316Z,71.87
2022-12-03T17:43:21.793Z,76.10
2022-12-03T17:45:48.427Z,61.10
2022-12-03T17:48:15.116Z,62.67
2022-12-03T17:50:41.645Z,65.40
2022-12-03T17:55:55.118Z,66.87
2022-12-03T18:01:09.562Z,65.20
2022-12-03T18:03:37.540Z,65.37
2022-12-03T18:06:04.353Z,65.03
2022-12-03T18:08:31.267Z,65.80
2022-12-03T18:10:57.943Z,70.27
2022-12-03T18:13:24.645Z,65.40
2022-12-03T18:15:51.600Z,68.10
2022-12-03T18:18:21.503Z,73.73
2022-12-03T18:20:48.398Z,67.57
2022-12-03T18:23:15.049Z,59.33
2022-12-03T18:28:26.591Z,65.07
2022-12-03T18:30:53.197Z,62.47
2022-12-03T18:33:21.353Z,62.87
2022-12-03T18:35:47.977Z,61.57
2022-12-03T18:38:14.809Z,67.97
2022-12-03T18:40:43.251Z,61.13
2022-12-03T18:43:13.408Z,60.30
2022-12-03T18:45:40.317Z,66.20
2022-12-03T18:48:13.676Z,63.57
2022-12-03T18:50:40.585Z,66.87
2022-12-03T18:55:53.666Z,63.47
2022-12-03T18:58:20.444Z,58.70
2022-12-03T19:00:47.567Z,64.00
2022-12-03T19:03:14.339Z,66.23
2022-12-03T19:08:25.587Z,65.67
2022-12-03T19:10:59.102Z,66.33
2022-12-03T19:13:26.520Z,56.80
2022-12-03T19:15:56.200Z,64.40
2022-12-03T19:18:23.420Z,62.63
2022-12-03T19:20:50.573Z,59.93
2022-12-03T19:23:17.267Z,52.93
2022-12-03T19:28:38.592Z,60.47
2022-12-03T19:33:51.992Z,65.60
2022-12-03T19:39:03.209Z,57.80
2022-12-03T19:41:30.820Z,64.17
2022-12-03T19:44:00.824Z,60.20
2022-12-03T19:46:29.281Z,61.93
2022-12-03T19:48:56.003Z,61.63
2022-12-03T19:51:37.485Z,58.20
2022-12-03T19:56:48.879Z,62.13
2022-12-03T19:59:16.297Z,67.90
2022-12-03T20:01:43.570Z,54.10
2022-12-03T20:04:11.574Z,55.37
2022-12-03T20:09:24.873Z,65.33
2022-12-03T20:11:51.505Z,61.43
2022-12-03T20:14:18.346Z,58.67
2022-12-03T20:16:45.291Z,59.50
2022-12-03T20:22:02.342Z,62.33
2022-12-03T20:24:30.997Z,64.53
2022-12-03T20:26:57.726Z,61.13
2022-12-03T20:29:25.781Z,67.80
2022-12-03T20:31:52.554Z,64.67
2022-12-03T20:34:19.294Z,64.57
2022-12-03T20:36:46.187Z,55.90
2022-12-03T20:39:13.413Z,62.43
2022-12-03T20:41:40.013Z,57.47
2022-12-03T20:44:07.706Z,64.00
2022-12-03T20:46:35.642Z,64.07
2022-12-03T20:49:02.348Z,61.97
2022-12-03T20:51:30.171Z,66.30
2022-12-03T20:53:57.222Z,61.90
2022-12-03T20:56:25.130Z,65.33
2022-12-03T20:58:53.805Z,64.20
2022-12-03T21:01:20.507Z,62.90
2022-12-03T21:03:47.419Z,64.47
2022-12-03T21:06:14.253Z,63.50
2022-12-03T21:08:42.443Z,65.87
2022-12-03T21:11:10.404Z,59.17
2022-12-03T21:13:37.614Z,63.90
2022-12-03T21:16:05.555Z,58.57
2022-12-03T21:18:33.334Z,62.57
2022-12-03T21:21:00.605Z,60.53
2022-12-03T21:23:27.701Z,69.43
2022-12-03T21:25:57.826Z,64.63
2022-12-03T21:28:24.948Z,69.33
2022-12-03T21:30:54.320Z,67.00
2022-12-03T21:33:20.912Z,70.27
2022-12-03T21:35:47.957Z,65.53
2022-12-03T21:38:15.909Z,69.23
2022-12-03T21:40:42.540Z,63.50
2022-12-03T21:43:10.799Z,66.90
2022-12-03T21:48:24.776Z,63.57
2022-12-03T21:51:00.281Z,63.00
2022-12-03T21:53:27.020Z,64.73
2022-12-03T21:55:53.864Z,67.57
2022-12-03T21:58:21.102Z,56.33
2022-12-03T22:00:47.862Z,61.30
2022-12-03T22:03:15.836Z,65.97
2022-12-03T22:05:42.702Z,66.97
2022-12-03T22:08:09.457Z,63.40
2022-12-03T22:10:36.305Z,64.07
2022-12-03T22:13:02.985Z,66.87
2022-12-03T22:15:29.596Z,68.37
2022-12-03T22:17:56.190Z,61.67
2022-12-03T22:20:24.434Z,66.80
2022-12-03T22:22:51.257Z,66.97
2022-12-03T22:25:18.315Z,65.63
2022-12-03T22:27:45.201Z,61.37
2022-12-03T22:30:14.390Z,62.93
2022-12-03T22:32:44.412Z,61.90
2022-12-03T22:37:55.358Z,61.97
2022-12-03T22:43:06.153Z,65.17
2022-12-03T22:48:19.184Z,75.07
2022-12-03T22:50:46.078Z,64.53
2022-12-03T22:53:12.838Z,69.20
2022-12-03T22:55:39.563Z,67.23
2022-12-03T22:58:06.270Z,70.60
2022-12-03T23:00:34.859Z,72.60
2022-12-03T23:03:01.677Z,69.03
2022-12-03T23:05:36.917Z,69.93
2022-12-03T23:08:04.919Z,71.83
2022-12-03T23:10:34.958Z,72.37
2022-12-03T23:15:46.702Z,73.33
2022-12-03T23:18:13.854Z,75.10
2022-12-03T23:20:46.573Z,73.93
2022-12-03T23:23:13.205Z,75.83
2022-12-03T23:25:39.825Z,74.70
2022-12-03T23:28:06.480Z,71.17
2022-12-03T23:30:36.600Z,72.13
2022-12-03T23:33:04.278Z,76.13
2022-12-03T23:35:31.034Z,73.37
2022-12-03T23:40:48.073Z,67.87
2022-12-03T23:43:15.553Z,73.27
2022-12-03T23:45:42.072Z,71.33
2022-12-03T23:48:08.743Z,67.83
2022-12-03T23:50:38.157Z,71.97
2022-12-03T23:53:04.769Z,70.50
2022-12-03T23:55:34.330Z,63.67
2022-12-03T23:58:01.138Z,68.83
